Time;durP1;ratioP1;P1;durP2;ratioP2;P2;SDS_P1;SDS_P2;PMS_P1;PMS_P2;Temp;Humidity;BMP_temperature;BMP_pressure;BME280_temperature;BME280_humidity;BME280_pressure;Samples;Min_cycle;Max_cycle;Signal;HPM_P1;HPM_P2
2023/03/20 00:00:07;;;;;;;1999.90;999.90;;;10.70;99.90;;;;;;5090130;28;20434;-72
2023/03/20 00:02:34;;;;;;;1999.90;999.90;;;10.80;99.90;;;;;;5082717;28;20432;-72
2023/03/20 00:05:01;;;;;;;1999.90;999.90;;;11.10;99.90;;;;;;5090607;28;20420;-72
2023/03/20 00:07:28;;;;;;;1999.90;999.90;;;11.00;99.90;;;;;;5090772;28;20498;-72
2023/03/20 00:09:56;;;;;;;1999.90;999.90;;;10.90;99.90;;;;;;5090837;28;20414;-71
2023/03/20 00:12:25;;;;;;;1999.90;999.90;;;11.00;99.90;;;;;;5089882;28;20426;-73
2023/03/20 00:14:52;;;;;;;1999.90;999.90;;;11.00;99.90;;;;;;5090615;28;20413;-73
2023/03/20 00:17:20;;;;;;;1999.90;999.90;;;11.10;99.90;;;;;;5089846;28;20425;-72
2023/03/20 00:19:47;;;;;;;1999.90;999.90;;;11.20;99.90;;;;;;5090898;28;20842;-73
2023/03/20 00:22:14;;;;;;;1999.90;999.90;;;11.20;99.90;;;;;;5090877;28;20467;-72
2023/03/20 00:24:40;;;;;;;1999.90;999.90;;;11.20;99.90;;;;;;5089749;28;20426;-73
2023/03/20 00:27:11;;;;;;;1999.90;999.90;;;11.20;99.90;;;;;;5090694;28;20773;-72
2023/03/20 00:29:37;;;;;;;1999.90;999.90;;;11.10;99.90;;;;;;5090601;28;20475;-70
2023/03/20 00:32:05;;;;;;;1999.90;999.90;;;11.10;99.90;;;;;;5090368;28;20409;-72
2023/03/20 00:34:32;;;;;;;1999.90;999.90;;;11.20;99.90;;;;;;5090067;28;20406;-72
2023/03/20 00:36:59;;;;;;;1999.90;999.90;;;11.20;99.90;;;;;;5090292;28;20416;-70
2023/03/20 00:39:26;;;;;;;1999.90;999.90;;;11.20;99.90;;;;;;5090399;28;20408;-73
2023/03/20 00:41:55;;;;;;;1999.90;999.90;;;11.30;99.90;;;;;;5090486;28;20554;-72
2023/03/20 00:44:27;;;;;;;1999.90;999.90;;;11.30;99.90;;;;;;5090234;28;20483;-72
2023/03/20 00:46:56;;;;;;;1999.90;999.90;;;11.30;99.90;;;;;;5089867;28;20429;-72
2023/03/20 00:49:26;;;;;;;1999.90;999.90;;;11.40;99.90;;;;;;5090181;28;20752;-72
2023/03/20 00:51:53;;;;;;;1999.90;999.90;;;11.30;99.90;;;;;;5090436;28;20409;-72
2023/03/20 00:54:20;;;;;;;1999.90;999.90;;;11.40;99.90;;;;;;5090340;28;20454;-73
2023/03/20 00:56:54;;;;;;;1999.90;999.90;;;11.30;99.90;;;;;;5090158;28;20456;-74
2023/03/20 00:59:26;;;;;;;1999.90;999.90;;;11.30;99.90;;;;;;5089341;28;21091;-73
2023/03/20 01:01:55;;;;;;;1999.90;999.90;;;11.40;99.90;;;;;;5089447;28;22187;-72
2023/03/20 01:04:22;;;;;;;1999.90;999.90;;;11.30;99.90;;;;;;5090156;28;20418;-72
2023/03/20 01:06:48;;;;;;;1999.90;999.90;;;11.20;99.90;;;;;;5089995;28;20422;-72
2023/03/20 01:09:15;;;;;;;1999.90;999.90;;;11.20;99.90;;;;;;5090135;28;21122;-72
2023/03/20 01:11:45;;;;;;;1999.90;999.90;;;11.20;99.90;;;;;;5088824;28;21303;-73
2023/03/20 01:14:15;;;;;;;1999.90;999.90;;;11.10;99.90;;;;;;5089982;28;20418;-73
2023/03/20 01:16:43;;;;;;;1999.90;999.90;;;11.10;99.90;;;;;;5090077;28;20417;-72
2023/03/20 01:19:11;;;;;;;1999.90;999.90;;;11.20;99.90;;;;;;5090070;28;20422;-72
2023/03/20 01:21:38;;;;;;;1999.90;999.90;;;11.20;99.90;;;;;;5090080;28;20842;-74
2023/03/20 01:24:05;;;;;;;1999.90;999.90;;;11.20;99.90;;;;;;5089289;28;20509;-73
2023/03/20 01:26:35;;;;;;;1999.90;999.90;;;11.20;99.90;;;;;;5091823;28;20518;-72
2023/03/20 01:29:02;;;;;;;1999.90;999.90;;;11.20;99.90;;;;;;5093644;28;20909;-72
2023/03/20 01:31:29;;;;;;;1999.90;999.90;;;11.30;99.90;;;;;;5093768;28;20410;-73
2023/03/20 01:33:57;;;;;;;1999.90;999.90;;;11.40;99.90;;;;;;5093651;28;20413;-71
2023/03/20 01:36:24;;;;;;;1999.90;999.90;;;11.30;99.90;;;;;;5092905;28;20429;-72
2023/03/20 01:38:55;;;;;;;1999.90;999.90;;;11.40;99.90;;;;;;5093252;28;20942;-74
2023/03/20 01:41:24;;;;;;;1999.90;999.90;;;11.40;99.90;;;;;;5093783;28;20417;-73
2023/03/20 01:43:50;;;;;;;1999.90;999.90;;;11.30;99.90;;;;;;5093611;28;20410;-72
2023/03/20 01:46:22;;;;;;;1999.90;999.90;;;11.30;99.90;;;;;;5092823;28;20414;-70
2023/03/20 01:49:07;;;;;;;1999.90;999.90;;;11.30;99.90;;;;;;5093272;28;20418;-73
2023/03/20 01:51:35;;;;;;;1999.90;999.90;;;11.20;99.90;;;;;;5093482;28;20406;-72
2023/03/20 01:54:06;;;;;;;1999.90;999.90;;;11.30;99.90;;;;;;5093175;28;20787;-73
2023/03/20 01:56:37;;;;;;;1999.90;999.90;;;11.30;99.90;;;;;;5093235;28;20410;-72
2023/03/20 01:59:08;;;;;;;1999.90;999.90;;;11.40;99.90;;;;;;5092498;28;20431;-74
2023/03/20 02:01:36;;;;;;;1999.90;999.90;;;11.40;99.90;;;;;;5092942;28;20475;-72
2023/03/20 02:04:05;;;;;;;1999.90;999.90;;;11.40;99.90;;;;;;5093340;28;20438;-73
2023/03/20 02:06:33;;;;;;;1999.90;999.90;;;11.40;99.90;;;;;;5093028;28;20425;-71
2023/03/20 02:08:59;;;;;;;1999.90;999.90;;;11.40;99.90;;;;;;5093111;28;20496;-72
2023/03/20 02:11:26;;;;;;;1999.90;999.90;;;11.40;99.90;;;;;;5091929;28;20497;-70
2023/03/20 02:13:57;;;;;;;1999.90;999.90;;;11.50;99.90;;;;;;5092931;28;20410;-73
2023/03/20 02:16:24;;;;;;;1999.90;999.90;;;11.50;99.90;;;;;;5092856;28;20433;-73
2023/03/20 02:18:55;;;;;;;1999.90;999.90;;;11.40;99.90;;;;;;5092915;28;20418;-72
2023/03/20 02:21:51;;;;;;;1999.90;999.90;;;11.40;99.90;;;;;;5092882;28;20444;-72
2023/03/20 02:24:54;;;;;;;1999.90;999.90;;;11.40;99.90;;;;;;5085886;28;20482;-73
2023/03/20 02:27:30;;;;;;;1999.90;999.90;;;11.40;99.90;;;;;;5092506;28;20783;-72
2023/03/20 02:30:28;;;;;;;1999.90;999.90;;;11.70;99.90;;;;;;5092550;28;20926;-71
2023/03/20 02:33:43;;;;;;;1999.90;999.90;;;11.60;99.90;;;;;;5087314;28;20418;-72
2023/03/20 02:36:45;;;;;;;1999.90;999.90;;;11.70;99.90;;;;;;5092042;28;20525;-72
2023/03/20 02:39:42;;;;;;;1999.90;999.90;;;11.50;99.90;;;;;;5019831;28;20468;-72
2023/03/20 02:42:19;;;;;;;1999.90;999.90;;;11.50;99.90;;;;;;5068257;28;20766;-73
2023/03/20 02:44:58;;;;;;;1999.90;999.90;;;11.30;99.90;;;;;;5071982;28;20443;-73
2023/03/20 02:47:30;;;;;;;1999.90;999.90;;;11.30;99.90;;;;;;5088253;28;20846;-72
2023/03/20 02:50:09;;;;;;;1999.90;999.90;;;11.40;99.90;;;;;;5092218;28;20775;-75
2023/03/20 02:52:43;;;;;;;1999.90;999.90;;;11.50;99.90;;;;;;5092446;28;20815;-72
2023/03/20 02:55:17;;;;;;;1999.90;999.90;;;11.60;99.90;;;;;;5092136;28;20879;-72
2023/03/20 02:57:52;;;;;;;1999.90;999.90;;;11.60;99.90;;;;;;5091308;28;20426;-72
2023/03/20 03:00:27;;;;;;;1999.90;999.90;;;11.60;99.90;;;;;;5091859;28;20834;-74
2023/03/20 03:03:01;;;;;;;1999.90;999.90;;;11.60;99.90;;;;;;5110393;22;20437;-66
2023/03/20 03:05:33;;;;;;;1999.90;999.90;;;11.50;99.90;;;;;;5071770;28;20881;-67
2023/03/20 03:08:02;;;;;;;1999.90;999.90;;;11.40;99.90;;;;;;5077542;28;20848;-65
2023/03/20 03:10:33;;;;;;;1999.90;999.90;;;11.40;99.90;;;;;;5091566;28;20414;-70
2023/03/20 03:13:05;;;;;;;1999.90;999.90;;;11.40;99.90;;;;;;5091633;28;20406;-67
2023/03/20 03:15:35;;;;;;;1999.90;999.90;;;11.20;99.90;;;;;;5091525;28;20417;-66
2023/03/20 03:18:05;;;;;;;1999.90;999.90;;;11.00;99.90;;;;;;5091721;28;20453;-68
2023/03/20 03:20:35;;;;;;;1999.90;999.90;;;10.80;99.90;;;;;;5091034;28;20430;-69
2023/03/20 03:23:03;;;;;;;1999.90;999.90;;;10.60;99.90;;;;;;5091506;28;20459;-69
2023/03/20 03:25:34;;;;;;;1999.90;999.90;;;10.50;99.90;;;;;;5091592;28;20410;-69
2023/03/20 03:28:06;;;;;;;1999.90;999.90;;;10.50;99.90;;;;;;5091278;28;20422;-68
2023/03/20 03:30:37;;;;;;;1999.90;999.90;;;10.40;99.90;;;;;;5091683;28;20413;-69
2023/03/20 03:33:14;;;;;;;1999.90;999.90;;;10.40;99.90;;;;;;5090683;28;20483;-71
2023/03/20 03:35:41;;;;;;;1999.90;999.90;;;10.30;99.90;;;;;;5091116;28;20417;-68
2023/03/20 03:38:21;;;;;;;1999.90;999.90;;;10.20;99.90;;;;;;5091352;28;20496;-69
2023/03/20 03:40:55;;;;;;;1999.90;999.90;;;10.30;99.90;;;;;;5091338;28;20483;-68
2023/03/20 03:43:31;;;;;;;1999.90;999.90;;;10.20;99.90;;;;;;5091175;28;20791;-69
2023/03/20 03:46:02;;;;;;;1999.90;999.90;;;10.30;99.90;;;;;;5084250;28;20406;-68
2023/03/20 03:48:35;;;;;;;1999.90;999.90;;;10.20;99.90;;;;;;5090611;28;20430;-69
2023/03/20 03:51:05;;;;;;;1999.90;999.90;;;10.30;99.90;;;;;;5090987;28;20409;-69
2023/03/20 03:53:36;;;;;;;1999.90;999.90;;;10.30;99.90;;;;;;5090689;28;20822;-68
2023/03/20 03:56:06;;;;;;;1999.90;999.90;;;10.40;99.90;;;;;;5090289;28;20430;-69
2023/03/20 03:58:40;;;;;;;1999.90;999.90;;;10.40;99.90;;;;;;5090684;28;20493;-68
2023/03/20 04:01:10;;;;;;;1999.90;999.90;;;10.40;99.90;;;;;;5090695;28;20428;-67
2023/03/20 04:03:41;;;;;;;1999.90;999.90;;;10.40;99.90;;;;;;5090942;28;20428;-66
2023/03/20 04:06:10;;;;;;;1999.90;999.90;;;10.40;99.90;;;;;;5090877;28;20415;-67
2023/03/20 04:08:37;;;;;;;1999.90;999.90;;;10.50;99.90;;;;;;5089606;28;20426;-66
2023/03/20 04:11:03;;;;;;;1999.90;999.90;;;10.50;99.90;;;;;;5090608;28;20481;-67
2023/03/20 04:13:30;;;;;;;1999.90;999.90;;;10.50;99.90;;;;;;5090463;28;20488;-68
2023/03/20 04:15:58;;;;;;;1999.90;999.90;;;10.70;99.90;;;;;;5090387;28;20475;-66
2023/03/20 04:18:25;;;;;;;1999.90;999.90;;;10.60;99.90;;;;;;5090719;28;20406;-67
2023/03/20 04:20:52;;;;;;;1999.90;999.90;;;10.70;99.90;;;;;;5089689;28;20433;-66
2023/03/20 04:23:19;;;;;;;1999.90;999.90;;;10.70;99.90;;;;;;5090378;28;20422;-66
2023/03/20 04:25:46;;;;;;;1999.90;999.90;;;10.80;99.90;;;;;;5090253;28;20473;-67
2023/03/20 04:28:15;;;;;;;1999.90;999.90;;;10.60;99.90;;;;;;5090437;28;20947;-66
2023/03/20 04:30:43;;;;;;;1999.90;999.90;;;10.60;99.90;;;;;;5090303;28;20490;-68
2023/03/20 04:33:11;;;;;;;1999.90;999.90;;;10.70;99.90;;;;;;5088949;28;20847;-68
2023/03/20 04:35:37;;;;;;;1999.90;999.90;;;10.70;99.90;;;;;;5089267;28;20444;-66
2023/03/20 04:38:04;;;;;;;1999.90;999.90;;;10.60;99.90;;;;;;5090251;28;20901;-67
2023/03/20 04:40:31;;;;;;;1999.90;999.90;;;10.50;99.90;;;;;;5090475;28;20463;-70
2023/03/20 04:42:57;;;;;;;1999.90;999.90;;;10.50;99.90;;;;;;5090233;28;20485;-66
2023/03/20 04:45:24;;;;;;;1999.90;999.90;;;10.60;99.90;;;;;;5089501;28;20430;-70
2023/03/20 04:47:51;;;;;;;1999.90;999.90;;;10.60;99.90;;;;;;5090146;28;20487;-67
2023/03/20 04:50:19;;;;;;;1999.90;999.90;;;10.60;99.90;;;;;;5090147;28;20482;-67
2023/03/20 04:52:46;;;;;;;1999.90;999.90;;;10.50;99.90;;;;;;5090161;28;20528;-66
2023/03/20 04:55:12;;;;;;;1999.90;999.90;;;10.50;99.90;;;;;;5089836;28;20406;-66
2023/03/20 04:57:39;;;;;;;1999.90;999.90;;;10.50;99.90;;;;;;5088644;28;20433;-68
2023/03/20 05:00:07;;;;;;;1999.90;999.90;;;10.30;99.90;;;;;;5090017;28;20451;-66
2023/03/20 05:02:34;;;;;;;1999.90;999.90;;;10.20;99.90;;;;;;5093614;28;20410;-66
2023/03/20 05:05:01;;;;;;;1999.90;999.90;;;10.10;99.90;;;;;;5093901;28;20891;-66
2023/03/20 05:07:29;;;;;;;1999.90;999.90;;;10.20;99.90;;;;;;5093682;28;20813;-66
2023/03/20 05:09:55;;;;;;;1999.90;999.90;;;10.30;99.90;;;;;;5092538;28;20841;-67
2023/03/20 05:12:22;;;;;;;1999.90;999.90;;;10.40;99.90;;;;;;5092664;28;20830;-67
2023/03/20 05:14:49;;;;;;;1999.90;999.90;;;10.40;99.90;;;;;;5093733;28;20505;-66
2023/03/20 05:17:17;;;;;;;1999.90;999.90;;;10.40;99.90;;;;;;5093687;28;20410;-66
2023/03/20 05:19:43;;;;;;;1999.90;999.90;;;10.40;99.90;;;;;;5093697;28;20476;-69
2023/03/20 05:22:10;;;;;;;1999.90;999.90;;;10.30;99.90;;;;;;5092706;28;20410;-68
2023/03/20 05:24:38;;;;;;;1999.90;999.90;;;10.30;99.90;;;;;;5093345;28;20417;-69
2023/03/20 05:27:05;;;;;;;1999.90;999.90;;;10.20;99.90;;;;;;5093278;28;20953;-69
2023/03/20 05:29:32;;;;;;;1999.90;999.90;;;10.20;99.90;;;;;;5093611;28;20429;-68
2023/03/20 05:31:58;;;;;;;1999.90;999.90;;;10.20;99.90;;;;;;5093434;28;20421;-67
2023/03/20 05:34:26;;;;;;;1999.90;999.90;;;10.20;99.90;;;;;;5092482;28;20426;-71
2023/03/20 05:36:53;;;;;;;1999.90;999.90;;;10.20;99.90;;;;;;5084912;28;20891;-68
2023/03/20 05:39:21;;;;;;;1999.90;999.90;;;10.20;99.90;;;;;;5093171;28;20882;-69
2023/03/20 05:41:49;;;;;;;1999.90;999.90;;;10.20;99.90;;;;;;5093319;28;20405;-69
2023/03/20 05:44:15;;;;;;;1999.90;999.90;;;10.20;99.90;;;;;;5093262;28;20467;-68
2023/03/20 05:46:42;;;;;;;1999.90;999.90;;;10.20;99.90;;;;;;5092283;28;20441;-68
2023/03/20 05:49:09;;;;;;;1999.90;999.90;;;10.20;99.90;;;;;;5093156;28;20430;-69
2023/03/20 05:51:36;;;;;;;1999.90;999.90;;;10.20;99.90;;;;;;5093117;28;20499;-68
2023/03/20 05:54:02;;;;;;;1999.90;999.90;;;10.10;99.90;;;;;;5092933;28;20421;-70
2023/03/20 05:56:29;;;;;;;1999.90;999.90;;;10.10;99.90;;;;;;5093096;28;20622;-68
2023/03/20 05:58:57;;;;;;;1999.90;999.90;;;10.00;99.90;;;;;;5092371;28;20781;-68
2023/03/20 06:01:24;;;;;;;1999.90;999.90;;;9.90;99.90;;;;;;5092805;28;20414;-69
2023/03/20 06:03:51;;;;;;;1999.90;999.90;;;9.80;99.90;;;;;;5093200;28;20439;-68
2023/03/20 06:06:18;;;;;;;1999.90;999.90;;;9.70;99.90;;;;;;5092734;28;20413;-69
2023/03/20 06:08:45;;;;;;;1999.90;999.90;;;9.70;99.90;;;;;;5093163;28;20426;-68
2023/03/20 06:11:12;;;;;;;1999.90;999.90;;;9.70;99.90;;;;;;5091778;28;20434;-68
2023/03/20 06:13:39;;;;;;;1999.90;999.90;;;9.70;99.90;;;;;;5092564;28;20500;-69
2023/03/20 06:16:08;;;;;;;1999.90;999.90;;;9.80;99.90;;;;;;5092664;28;20467;-66
2023/03/20 06:18:34;;;;;;;1999.90;999.90;;;9.70;99.90;;;;;;5092650;28;20409;-66
2023/03/20 06:21:01;;;;;;;1999.90;999.90;;;9.80;99.90;;;;;;5092528;28;20410;-65
2023/03/20 06:23:28;;;;;;;1999.90;999.90;;;9.90;99.90;;;;;;5091128;28;20513;-68
2023/03/20 06:25:55;;;;;;;1999.90;999.90;;;10.00;99.90;;;;;;5084094;28;20769;-67
2023/03/20 06:28:21;;;;;;;1999.90;999.90;;;10.00;99.90;;;;;;5092435;28;20988;-66
2023/03/20 06:30:52;;;;;;;1999.90;999.90;;;10.10;99.90;;;;;;5092498;28;20420;-65
2023/03/20 06:33:20;;;;;;;1999.90;999.90;;;10.10;99.90;;;;;;5092597;28;20508;-66
2023/03/20 06:35:48;;;;;;;1999.90;999.90;;;10.20;99.90;;;;;;5091493;28;20429;-66
2023/03/20 06:38:15;;;;;;;1999.90;999.90;;;10.20;99.90;;;;;;5092337;28;20488;-66
2023/03/20 06:40:42;;;;;;;1999.90;999.90;;;10.20;99.90;;;;;;5092173;28;20784;-66
2023/03/20 06:43:11;;;;;;;1999.90;999.90;;;10.40;99.90;;;;;;5092114;28;20414;-66
2023/03/20 06:45:37;;;;;;;1999.90;999.90;;;10.60;99.90;;;;;;5092055;28;20517;-68
2023/03/20 06:48:06;;;;;;;1999.90;999.90;;;10.60;99.90;;;;;;5091091;28;20426;-66
2023/03/20 06:50:34;;;;;;;1999.90;999.90;;;10.80;99.90;;;;;;5092036;28;20418;-66
2023/03/20 06:53:01;;;;;;;1999.90;999.90;;;10.80;99.90;;;;;;5091784;28;20931;-66
2023/03/20 06:55:27;;;;;;;1999.90;999.90;;;10.80;99.90;;;;;;5091852;28;20888;-66
2023/03/20 06:57:54;;;;;;;1999.90;999.90;;;10.80;99.90;;;;;;5091733;28;20417;-66
2023/03/20 07:00:21;;;;;;;1999.90;999.90;;;11.00;99.90;;;;;;5090922;28;20479;-66
2023/03/20 07:02:48;;;;;;;1999.90;999.90;;;11.20;99.90;;;;;;5091684;28;20414;-66
2023/03/20 07:05:15;;;;;;;1999.90;999.90;;;11.30;99.90;;;;;;5091674;28;20963;-67
2023/03/20 07:07:43;;;;;;;1999.90;999.90;;;11.30;99.90;;;;;;5091589;28;20410;-67
2023/03/20 07:10:11;;;;;;;1999.90;999.90;;;11.30;99.90;;;;;;5091713;28;20823;-66
2023/03/20 07:12:38;;;;;;;1999.90;999.90;;;11.30;99.90;;;;;;5090865;28;20453;-66
2023/03/20 07:15:05;;;;;;;1999.90;999.90;;;11.40;99.90;;;;;;5091443;28;20406;-66
2023/03/20 07:17:32;;;;;;;1999.90;999.90;;;11.50;99.90;;;;;;5091914;28;20489;-66
2023/03/20 07:19:58;;;;;;;1999.90;999.90;;;11.50;99.90;;;;;;5091523;28;20416;-65
2023/03/20 07:22:27;;;;;;;1999.90;999.90;;;11.50;99.90;;;;;;5091452;28;20602;-64
2023/03/20 07:24:55;;;;;;;1999.90;999.90;;;11.40;99.90;;;;;;5090111;28;20409;-67
2023/03/20 07:27:22;;;;;;;1999.90;999.90;;;11.30;99.90;;;;;;5091346;28;20887;-69
2023/03/20 07:29:49;;;;;;;1999.90;999.90;;;11.40;99.90;;;;;;5091164;28;20418;-69
2023/03/20 07:32:16;;;;;;;1999.90;999.90;;;11.30;99.90;;;;;;5091410;28;20410;-66
2023/03/20 07:34:43;;;;;;;1999.90;999.90;;;11.20;99.90;;;;;;5090444;28;20435;-66
2023/03/20 07:37:10;;;;;;;1999.90;999.90;;;11.30;99.90;;;;;;5090974;28;20467;-66
2023/03/20 07:39:36;;;;;;;1999.90;999.90;;;11.40;99.90;;;;;;5091214;28;20470;-69
2023/03/20 07:42:05;;;;;;;1999.90;999.90;;;11.50;99.90;;;;;;5090993;28;20414;-67
2023/03/20 07:44:32;;;;;;;1999.90;999.90;;;11.50;99.90;;;;;;5091128;28;20418;-66
2023/03/20 07:46:58;;;;;;;1999.90;999.90;;;11.60;99.90;;;;;;5090266;28;20784;-65
2023/03/20 07:49:25;;;;;;;1999.90;999.90;;;11.70;99.90;;;;;;5091014;28;20499;-68
2023/03/20 07:51:53;;;;;;;1999.90;999.90;;;11.70;99.90;;;;;;5090777;28;20406;-66
2023/03/20 07:54:20;;;;;;;1999.90;999.90;;;11.90;99.90;;;;;;5090832;28;20772;-67
2023/03/20 07:56:46;;;;;;;1999.90;999.90;;;12.00;99.90;;;;;;5089730;28;20854;-67
2023/03/20 07:59:14;;;;;;;1999.90;999.90;;;12.00;99.90;;;;;;5090637;28;20409;-67
2023/03/20 08:01:41;;;;;;;1999.90;999.90;;;11.90;99.90;;;;;;5090672;28;20478;-66
2023/03/20 08:04:08;;;;;;;1999.90;999.90;;;12.00;99.90;;;;;;5090795;28;20467;-66
2023/03/20 08:06:34;;;;;;;1999.90;999.90;;;11.90;99.90;;;;;;5090602;28;20846;-67
2023/03/20 08:09:01;;;;;;;1999.90;999.90;;;11.90;99.90;;;;;;5089759;28;20526;-66
2023/03/20 08:11:28;;;;;;;1999.90;999.90;;;11.90;99.90;;;;;;5090369;28;20572;-67
2023/03/20 08:13:55;;;;;;;1999.90;999.90;;;12.00;99.90;;;;;;5090650;28;20418;-67
2023/03/20 08:16:23;;;;;;;1999.90;999.90;;;12.00;99.90;;;;;;5090426;28;21002;-67
2023/03/20 08:18:52;;;;;;;1999.90;999.90;;;11.90;99.90;;;;;;5090617;28;20460;-66
2023/03/20 08:21:18;;;;;;;1999.90;999.90;;;12.00;99.90;;;;;;5088344;28;21015;-66
2023/03/20 08:23:45;;;;;;;1999.90;999.90;;;12.10;99.90;;;;;;5088255;28;20475;-69
2023/03/20 08:26:12;;;;;;;1999.90;999.90;;;12.10;99.90;;;;;;5090347;28;20497;-69
2023/03/20 08:28:39;;;;;;;1999.90;999.90;;;12.10;99.90;;;;;;5090277;28;20919;-68
2023/03/20 08:31:08;;;;;;;1999.90;999.90;;;12.10;99.90;;;;;;5089535;28;20426;-71
2023/03/20 08:33:36;;;;;;;1999.90;999.90;;;12.20;99.90;;;;;;5090180;28;20892;-69
2023/03/20 08:36:03;;;;;;;1999.90;999.90;;;12.30;99.90;;;;;;5087467;28;20438;-69
2023/03/20 08:38:30;;;;;;;1999.90;999.90;;;12.20;99.90;;;;;;5089085;28;20459;-70
2023/03/20 08:40:57;;;;;;;1999.90;999.90;;;12.20;99.90;;;;;;5089910;28;20822;-69
2023/03/20 08:43:24;;;;;;;1999.90;999.90;;;12.30;99.90;;;;;;5090289;28;20445;-68
2023/03/20 08:45:50;;;;;;;1999.90;999.90;;;12.40;99.90;;;;;;5089316;28;20475;-72
2023/03/20 08:48:17;;;;;;;1999.90;999.90;;;12.50;99.90;;;;;;5090087;28;20838;-70
2023/03/20 08:50:45;;;;;;;1999.90;999.90;;;12.50;99.90;;;;;;5090095;28;20418;-69
2023/03/20 08:53:11;;;;;;;1999.90;999.90;;;12.70;99.90;;;;;;5090267;28;20414;-69
2023/03/20 08:55:38;;;;;;;1999.90;999.90;;;12.70;99.90;;;;;;5090172;28;20443;-69
2023/03/20 08:58:05;;;;;;;1999.90;999.90;;;12.80;99.90;;;;;;5089420;28;20471;-69
2023/03/20 09:00:32;;;;;;;1999.90;999.90;;;12.70;99.90;;;;;;5090104;28;20410;-69
2023/03/20 09:02:58;;;;;;;1999.90;999.90;;;13.00;99.90;;;;;;5090491;28;20526;-71
2023/03/20 09:05:25;;;;;;;1999.90;999.90;;;13.20;99.90;;;;;;5089834;28;20760;-70
2023/03/20 09:07:53;;;;;;;1999.90;999.90;;;13.20;99.90;;;;;;5090113;28;20467;-73
2023/03/20 09:10:20;;;;;;;1999.90;999.90;;;13.50;99.90;;;;;;5088720;28;21141;-71
2023/03/20 09:12:46;;;;;;;1999.90;999.90;;;13.70;99.90;;;;;;5089357;28;20430;-71
2023/03/20 09:15:13;;;;;;;1999.90;999.90;;;13.90;99.90;;;;;;5090096;28;20469;-69
2023/03/20 09:17:39;;;;;;;1999.90;999.90;;;13.80;99.90;;;;;;5089773;28;20887;-69
2023/03/20 09:20:07;;;;;;;1999.90;999.90;;;13.40;99.90;;;;;;5089888;28;20471;-69
2023/03/20 09:22:34;;;;;;;1999.90;999.90;;;13.40;99.90;;;;;;5088548;28;20425;-71
2023/03/20 09:25:02;;;;;;;1999.90;999.90;;;13.40;99.90;;;;;;5088654;28;20426;-71
2023/03/20 09:27:28;;;;;;;1999.90;999.90;;;13.50;99.90;;;;;;5089790;28;20414;-71
2023/03/20 09:29:55;;;;;;;1999.90;999.90;;;13.40;99.90;;;;;;5089788;28;20471;-70
2023/03/20 09:32:22;;;;;;;1999.90;999.90;;;13.40;99.90;;;;;;5089904;28;20604;-71
2023/03/20 09:34:48;;;;;;;1999.90;999.90;;;13.60;99.90;;;;;;5086951;28;20527;-71
2023/03/20 09:37:15;;;;;;;1999.90;999.90;;;13.70;99.90;;;;;;5089733;28;20422;-71
2023/03/20 09:39:42;;;;;;;1999.90;999.90;;;13.70;99.90;;;;;;5089880;28;20459;-71
2023/03/20 09:42:23;;;;;;;1999.90;999.90;;;13.60;99.90;;;;;;5089741;28;20406;-71
2023/03/20 09:44:57;;;;;;;1999.90;999.90;;;13.90;99.90;;;;;;5088743;28;20430;-71
2023/03/20 09:47:31;;;;;;;1999.90;999.90;;;13.90;99.90;;;;;;5091370;28;20418;-71
2023/03/20 09:50:21;;;;;;;1999.90;999.90;;;13.90;99.90;;;;;;5093353;28;20426;-72
2023/03/20 09:52:56;;;;;;;1999.90;999.90;;;13.70;99.90;;;;;;5093255;28;20509;-72
2023/03/20 09:55:31;;;;;;;1999.90;999.90;;;13.90;99.90;;;;;;5092211;28;20440;-72
2023/03/20 09:58:05;;;;;;;1999.90;999.90;;;14.00;99.90;;;;;;5093038;28;20471;-71
2023/03/20 10:00:34;;;;;;;1999.90;999.90;;;13.90;99.90;;;;;;5093119;28;20875;-70
2023/03/20 10:03:03;;;;;;;1999.90;999.90;;;13.90;99.90;;;;;;5092855;28;20787;-70
2023/03/20 10:05:31;;;;;;;1999.90;999.90;;;14.00;99.90;;;;;;5093027;28;20413;-70
2023/03/20 10:08:00;;;;;;;1999.90;999.90;;;13.90;99.90;;;;;;5091815;28;20425;-72
2023/03/20 10:10:37;;;;;;;1999.90;999.90;;;14.00;99.90;;;;;;5092874;28;20426;-71
2023/03/20 10:13:17;;;;;;;1999.90;999.90;;;13.80;99.90;;;;;;5092913;28;20475;-70
2023/03/20 10:15:50;;;;;;;1999.90;999.90;;;13.50;99.90;;;;;;5092697;28;20455;-70
2023/03/20 10:18:24;;;;;;;1999.90;999.90;;;13.30;99.90;;;;;;5092682;28;20451;-68
2023/03/20 10:20:57;;;;;;;1999.90;999.90;;;13.20;99.90;;;;;;5092045;28;20495;-68
2023/03/20 10:23:31;;;;;;;1999.90;999.90;;;13.10;99.90;;;;;;5092736;28;20485;-68
2023/03/20 10:26:02;;;;;;;1999.90;999.90;;;13.00;99.90;;;;;;5092531;28;20410;-69
2023/03/20 10:28:36;;;;;;;1999.90;999.90;;;12.90;99.90;;;;;;5092850;28;20414;-68
2023/03/20 10:31:22;;;;;;;1999.90;999.90;;;12.90;99.90;;;;;;5091338;28;20422;-68
2023/03/20 10:34:00;;;;;;;1999.90;999.90;;;12.70;99.90;;;;;;5092325;28;20799;-67
2023/03/20 10:36:42;;;;;;;1999.90;999.90;;;12.70;99.90;;;;;;5092293;28;20412;-69
2023/03/20 10:39:18;;;;;;;1999.90;999.90;;;12.70;99.90;;;;;;5092420;28;20408;-68
2023/03/20 10:41:53;;;;;;;1999.90;999.90;;;12.70;99.90;;;;;;5092434;28;20410;-68
2023/03/20 10:44:32;;;;;;;1999.90;999.90;;;12.70;99.90;;;;;;5091455;28;20978;-69
2023/03/20 10:47:03;;;;;;;1999.90;999.90;;;12.90;99.90;;;;;;5092084;28;20409;-69
2023/03/20 10:49:35;;;;;;;1999.90;999.90;;;13.10;99.90;;;;;;5092032;28;20421;-68
2023/03/20 10:52:07;;;;;;;1999.90;999.90;;;13.20;99.90;;;;;;5092405;28;20414;-69
2023/03/20 10:54:35;;;;;;;1999.90;999.90;;;13.00;99.90;;;;;;5092060;28;20468;-67
2023/03/20 10:57:05;;;;;;;1999.90;999.90;;;13.00;99.90;;;;;;5090956;28;20463;-67
2023/03/20 10:59:37;;;;;;;1999.90;999.90;;;12.90;99.90;;;;;;5091052;28;20405;-68
2023/03/20 11:02:10;;;;;;;1999.90;999.90;;;12.90;99.90;;;;;;5091687;28;20446;-68
2023/03/20 11:04:36;;;;;;;1999.90;999.90;;;12.80;99.90;;;;;;5091988;28;20417;-68
2023/03/20 11:07:11;;;;;;;1999.90;999.90;;;12.90;99.90;;;;;;5090882;28;20478;-68
2023/03/20 11:09:38;;;;;;;1999.90;999.90;;;13.00;99.90;;;;;;5091700;28;20499;-68
2023/03/20 11:12:05;;;;;;;1999.90;999.90;;;13.00;99.90;;;;;;5091570;28;20418;-68
2023/03/20 11:14:37;;;;;;;1999.90;999.90;;;12.90;99.90;;;;;;5091457;28;20826;-68
2023/03/20 11:17:05;;;;;;;1999.90;999.90;;;13.00;99.90;;;;;;5091698;28;20420;-69
2023/03/20 11:19:34;;;;;;;1999.90;999.90;;;13.00;99.90;;;;;;5090933;28;20446;-69
2023/03/20 11:22:07;;;;;;;1999.90;999.90;;;13.00;99.90;;;;;;5091358;28;20417;-67
2023/03/20 11:24:37;;;;;;;1999.90;999.90;;;12.90;99.90;;;;;;5091330;28;21095;-67
2023/03/20 11:27:08;;;;;;;1999.90;999.90;;;13.00;99.90;;;;;;5091400;28;20406;-66
2023/03/20 11:29:37;;;;;;;1999.90;999.90;;;12.90;99.90;;;;;;5091462;28;20421;-67
2023/03/20 11:32:08;;;;;;;1999.90;999.90;;;12.80;99.90;;;;;;5090390;28;20430;-68
2023/03/20 11:34:37;;;;;;;1999.90;999.90;;;12.70;99.90;;;;;;5091155;28;20900;-70
2023/03/20 11:37:19;;;;;;;1999.90;999.90;;;12.80;99.90;;;;;;5091147;28;20409;-67
2023/03/20 11:39:56;;;;;;;1999.90;999.90;;;12.80;99.90;;;;;;5091017;28;20883;-69
2023/03/20 11:42:24;;;;;;;1999.90;999.90;;;12.80;99.90;;;;;;5091245;28;20406;-68
2023/03/20 11:44:59;;;;;;;1999.90;999.90;;;12.80;99.90;;;;;;5090364;28;20483;-70
2023/03/20 11:47:28;;;;;;;1999.90;999.90;;;12.90;99.90;;;;;;5091017;28;20410;-71
2023/03/20 11:49:57;;;;;;;1999.90;999.90;;;12.90;99.90;;;;;;5090957;28;20421;-68
2023/03/20 11:52:27;;;;;;;1999.90;999.90;;;12.90;99.90;;;;;;5091051;28;20422;-69
2023/03/20 11:54:56;;;;;;;1999.90;999.90;;;12.80;99.90;;;;;;5090066;28;20437;-69
2023/03/20 11:57:33;;;;;;;1999.90;999.90;;;12.70;99.90;;;;;;5089034;28;20866;-66
2023/03/20 12:00:05;;;;;;;1999.90;999.90;;;12.60;99.90;;;;;;5090813;28;20410;-68
2023/03/20 12:02:33;;;;;;;1999.90;999.90;;;12.60;99.90;;;;;;5090391;28;20421;-67
2023/03/20 12:05:00;;;;;;;1999.90;999.90;;;12.60;99.90;;;;;;5090575;28;20961;-67
2023/03/20 12:07:32;;;;;;;1999.90;999.90;;;12.80;99.90;;;;;;5089207;28;20430;-67
2023/03/20 12:10:02;;;;;;;1999.90;999.90;;;13.10;99.90;;;;;;5090469;28;20491;-70